Skip Navigation Links weather.gov 
NOAA logo-Select to go to the NOAA homepage NDBC Title GraphicClick to go to NDBC home page   Select to go to the NWS homepage
Home About Us Contact Us
 
 
    
    Station List

 Data Access
    Mobile Access
    Classic Maps
         Recent
         DART®
    Obs Search
    Ship Obs Report
    BuoyCAMs
    TAO
    DODS
    OceanSITES
    HF Radar
    OSMC
    Dial-A-Buoy
    RSS Feeds Image indicating link to RSS feed access page
    Web Widget
    Email Access
    Web Data Guide
    Maintenance Schedule
    Station Status Report

 Program Info
    TAO
    DART®
    IOOS®

 Publications
    NDBC PEA
    NDBC FONSI
    NDBC DQC Handbook

 FAQ
 Visitor Information
 
USA.gov is the U.S. government's official web portal to all federal, state and local government web resources and services.

The NDBC website is now available only via HTTPS. Please update your bookmarks and/or links to use https://www.ndbc.noaa.gov/.

Station CPXC1 - Cal Poly Pier, CA Image indicating link to RSS feed of recent meteorological observations for station CPXC1

Owned and maintained by California Polytechnic State University
Coastal Marine Station
35.170 N 120.741 W (35°10'12" N 120°44'27" W)

Site elevation: sea level
Air temp height: 4 m above site elevation
Anemometer height: 4 m above site elevation
Barometer elevation: 4 m above mean sea level

Search And Rescue (SAR) Data

Meteorological Observations from Nearby Stations and Ships Image indicating link to RSS feed of recent meteorological observations near station CPXC1

Regional HF Radar Surface Current Observations

Station CPXC1
Large icon indicates selected station.
yellow diamond Stations with recent data
red diamond Stations with no data in last 8 hours
     (24 hours for tsunami stations)


Conditions at CPXC1 as of
(4:46 pm PDT)
2346 GMT on 09/20/2018:
     

Click on the graph icon in the table below to see a time series plot of the last five days of that observation.

5-day plot - Wind Direction Wind Direction (WDIR): ESE ( 110 deg true )
5-day plot - Wind Speed Wind Speed (WSPD): 1.9 kts
5-day plot - Wind Gust Wind Gust (GST): 2.9 kts
5-day plot - Atmospheric Pressure Atmospheric Pressure (PRES): 29.85 in
5-day plot - Air Temperature Air Temperature (ATMP): 64.2 °F
5-day plot - Dew Point Dew Point (DEWP): 57.6 °F
5-day plot - Wind Speed at 10 Meters Wind Speed at 10 meters (WSPD10M): 1.9 kts
5-day plot - Wind Speed at 10 Meters Wind Speed at 20 meters (WSPD20M): 1.9 kts
5-day plot - Wind Speed, Wind Gust and Atmospheric Pressure Combined plot of Wind Speed, Gust, and Air Pressure
Previous observations
5-day plot - Wind Direction 5-day plot - Wind Speed 5-day plot - Wind Gust 5-day plot - Wave Height 5-day plot - Dominant Wave Period 5-day plot - Average Period 5-day plot - Mean Wave Direction 5-day plot - Atmospheric Pressure 5-day plot - Pressure Tendency 5-day plot - Air Temperature 5-day plot - Water Temperature 5-day plot - Dew Point 5-day plot - Salinity 5-day plot - Visibility 5-day plot - Tide (above MLLW)
MM DD TIME
(PDT)
WDIR WSPD
kts
GST
kts
WVHT
ft
DPD
sec
APD
sec
MWD PRES
in
PTDY
in
ATMP
°F
WTMP
°F
DEWP
°F
SAL
psu
VIS
nmi
TIDE
ft
0920 4:36 pm- 0.0 1.0----29.86- 64.0- 58.3---
0920 4:34 pm SE 1.9 2.9----29.86- 63.7- 58.3---
0920 4:32 pmESE 2.9 4.1----29.86- 63.3- 57.9---
0920 4:30 pmESE 2.9 4.1----29.86- 63.1- 57.7---
0920 4:28 pmESE 4.1 5.1----29.86- 63.0- 58.3---
0920 4:26 pmESE 4.1 4.1----29.86- 62.8- 57.7---
0920 4:24 pmESE 2.9 4.1----29.86- 62.8- 57.9---
0920 4:22 pm SE 2.9 4.1----29.86- 62.4- 57.6---
0920 4:20 pmESE 5.1 7.0----29.86- 62.2- 57.6---
0920 4:18 pmESE 6.0 7.0----29.86- 61.9- 57.0---
0920 4:16 pmESE 5.1 7.0----29.86- 62.2- 57.4---
0920 4:14 pmESE 5.1 5.1----29.86- 62.4- 57.4---
0920 4:12 pmESE 5.1 7.0----29.86- 62.4- 57.0---
0920 4:10 pmESE 5.1 6.0----29.86- 62.6- 56.8---
0920 4:08 pm SE 5.1 6.0----29.86- 62.8- 56.5---
0920 4:06 pmSSE 5.1 6.0----29.86- 62.8- 56.1---
0920 4:04 pm S 2.9 5.1----29.86- 63.1- 55.9---
0920 4:02 pm S 2.9 5.1----29.87- 63.5- 56.5---
0920 4:00 pm S 4.1 5.1----29.87- 63.3- 55.9---
0920 3:58 pmSSW 5.1 5.1----29.87- 63.1- 55.0---
0920 3:56 pmSSW 2.9 5.1----29.87- 63.7- 55.6---
0920 3:54 pmSSW 1.9 2.9----29.87- 64.0- 55.6---
0920 3:52 pmSSW 2.9 4.1----29.87- 63.9- 55.6---
0920 3:50 pmSSW 1.9 2.9----29.87- 64.0- 56.3---
0920 3:48 pmSSW 1.9 1.9----29.87-0.01 63.7- 56.3---
0920 3:46 pmSSW 1.9 1.9----29.87- 63.3- 56.3---
0920 3:44 pmSSW 1.9 2.9----29.86- 62.8- 55.9---
0920 3:42 pmSSW 1.9 1.9----29.87- 63.0- 56.3---
0920 3:40 pmSSW 1.0 1.9----29.87- 63.0- 56.3---
0920 3:38 pmSSW 1.0 1.9----29.87- 63.0- 56.5---
0920 3:36 pmSSW 1.0 1.9----29.87- 62.8- 56.3---
0920 3:34 pmSSW 1.0 1.9----29.86- 62.8- 56.1---
0920 3:32 pmSSW 1.9 1.9----29.87- 62.8- 55.9---
0920 3:30 pmSSW 1.0 1.9----29.87- 63.1- 56.3---
0920 3:28 pmSSW 1.0 1.9----29.87- 63.3- 56.3---
0920 3:26 pmSSW 1.0 1.9----29.87- 63.5- 56.3---
0920 3:24 pmSSW 1.9 1.9----29.87- 63.7- 56.5---
0920 3:22 pm S 1.0 2.9----29.87- 64.4- 57.6---
0920 3:20 pmSSW 1.0 1.9----29.87- 64.6- 58.3---
0920 3:18 pmSSW 1.0 1.9----29.87- 64.0- 58.1---
0920 3:14 pm S 1.0 1.9----29.88- 63.1- 57.7---
0920 3:12 pmSSW 1.9 2.9----29.88- 62.8- 57.2---
0920 3:10 pmSSW 1.9 2.9----29.88- 62.4- 56.7---
0920 3:08 pmSSW 2.9 4.1----29.88- 62.4- 56.7---
0920 3:06 pmSSW 1.9 2.9----29.88- 62.6- 57.0---
0920 3:04 pm S 1.9 2.9----29.88- 62.8- 57.6---
0920 3:02 pmSSW 2.9 4.1----29.88- 62.4- 57.2---
0920 3:00 pmSSW 1.9 4.1----29.88- 62.2- 57.4---
0920 2:58 pmSSW 1.9 2.9----29.88- 62.2- 57.6---
0920 2:56 pmSSW 2.9 4.1----29.88- 61.9- 57.2---
0920 2:54 pmSSW 2.9 4.1----29.88- 61.7- 57.0---
0920 2:52 pmSSW 4.1 4.1----29.88- 61.3- 56.7---
0920 2:50 pmSSW 2.9 4.1----29.88- 61.5- 56.8---
0920 2:48 pmSSW 4.1 5.1----29.88-0.01 61.3- 56.8---
0920 2:46 pmSSW 4.1 4.1----29.88- 61.3- 56.8---
0920 2:44 pmSSW 4.1 5.1----29.88- 61.3- 56.8---
0920 2:42 pmSSW 4.1 5.1----29.88- 61.3- 56.8---
0920 2:40 pmSSW 4.1 5.1----29.88- 61.3- 57.0---
0920 2:38 pmSSW 4.1 5.1----29.88- 61.3- 57.0---
0920 2:36 pmSSW 4.1 5.1----29.88- 61.3- 57.0---
0920 2:34 pm SW 4.1 5.1----29.88- 61.3- 57.0---
0920 2:32 pmSSW 5.1 6.0----29.88- 61.2- 56.7---
0920 2:30 pmSSW 6.0 7.0----29.88- 61.2- 56.5---
0920 2:28 pmSSW 6.0 7.0----29.88- 61.2- 56.5---
0920 2:26 pmSSW 6.0 7.0----29.88- 61.2- 56.3---
0920 2:24 pmSSW 6.0 8.0----29.88- 61.2- 56.5---
0920 2:22 pmSSW 6.0 7.0----29.88- 61.2- 56.5---
0920 2:20 pmSSW 6.0 7.0----29.88- 61.2- 56.3---
0920 2:18 pmSSW 6.0 8.0----29.88- 61.3- 56.5---
0920 2:16 pmSSW 6.0 7.0----29.88- 61.3- 56.7---
0920 2:14 pmSSW 7.0 8.9----29.88- 61.2- 56.1---
0920 2:12 pmSSW 7.0 8.9----29.88- 61.3- 56.5---
0920 2:10 pmSSW 7.0 9.9----29.88- 61.3- 56.3---
0920 2:08 pmSSW 7.0 9.9----29.88- 61.2- 56.7---
0920 2:06 pmSSW 7.0 9.9----29.88- 61.5- 57.0---
0920 2:04 pm S 8.0 8.9----29.88- 61.3- 56.8---
0920 2:02 pmSSW 8.0 9.9----29.88- 61.0- 56.5---
0920 2:00 pmSSW 8.0 9.9----29.88- 61.2- 57.0---
0920 1:58 pm S 8.0 8.9----29.88- 61.0- 56.8---
0920 1:56 pmSSW 8.0 9.9----29.88- 61.0- 56.8---
0920 1:54 pmSSW 9.9 12.0----29.88- 60.8- 56.7---
0920 1:52 pmSSW 9.9 12.0----29.88- 60.8- 56.7---
0920 1:50 pmSSW 9.9 11.1----29.88- 60.8- 56.7---
0920 1:48 pmSSW 9.9 11.1----29.88-0.01 60.8- 56.8---
0920 1:46 pmSSW 8.9 9.9----29.88- 60.8- 56.8---
0920 1:44 pmSSW 8.9 9.9----29.88- 60.8- 56.8---
0920 1:42 pmSSW 8.9 11.1----29.88- 60.6- 56.7---
0920 1:40 pmSSW 9.9 12.0----29.88- 60.6- 56.7---
0920 1:38 pmSSW 9.9 12.0----29.88- 60.6- 56.7---
0920 1:36 pmSSW 9.9 11.1----29.88- 60.6- 56.7---
0920 1:34 pmSSW 9.9 12.0----29.88- 60.6- 56.5---
0920 1:32 pmSSW 9.9 12.0----29.88- 60.6- 56.5---
0920 1:30 pmSSW 9.9 12.0----29.88- 60.6- 56.3---
0920 1:28 pmSSW 11.1 12.0----29.88- 60.6- 56.1---
0920 1:26 pmSSW 11.1 12.0----29.88- 60.6- 55.9---
0920 1:24 pmSSW 11.1 12.0----29.87- 60.8- 56.1---
0920 1:22 pmSSW 9.9 11.1----29.87- 60.6- 55.9---
0920 1:20 pmSSW 9.9 12.0----29.87- 60.6- 55.8---
0920 1:18 pmSSW 9.9 11.1----29.87- 60.6- 55.8---
0920 1:16 pmSSW 9.9 11.1----29.87- 60.6- 55.6---
0920 1:14 pmSSW 8.9 9.9----29.87- 60.6- 55.6---
0920 1:12 pmSSW 9.9 11.1----29.87- 60.8- 55.6---
0920 1:10 pmSSW 9.9 12.0----29.87- 60.8- 55.2---
0920 1:08 pmSSW 9.9 11.1----29.87- 60.8- 55.0---
0920 1:06 pmSSW 9.9 12.0----29.87- 61.0- 54.9---
0920 1:04 pm SW 9.9 12.0----29.88- 61.0- 54.5---
0920 1:02 pm SW 11.1 13.0----29.88- 61.0- 54.1---
0920 1:00 pmSSW 8.9 12.0----29.88- 61.2- 54.1---
092012:58 pmSSW 7.0 9.9----29.88- 61.7- 54.5---
092012:56 pm S 4.1 7.0----29.88- 62.4- 55.4---
092012:54 pm S 4.1 5.1----29.88- 62.4- 55.6---
092012:52 pm S 1.9 5.1----29.88- 62.6- 56.5---
092012:50 pm S 1.9 5.1----29.88- 62.1- 56.1---
092012:48 pm S 4.1 6.0----29.88+0.01 61.5- 55.6---
092012:46 pmSSW 4.1 5.1----29.88- 61.5- 55.2---
092012:44 pm S 4.1 5.1----29.88- 62.4- 56.5---
092012:42 pm S 2.9 5.1----29.88- 62.6- 57.2---
092012:40 pm S 2.9 4.1----29.88- 62.8- 57.6---
092012:38 pm S 2.9 5.1----29.88- 62.2- 57.2---
092012:36 pmSSE 2.9 4.1----29.88- 61.9- 56.7---
092012:34 pmSSE 2.9 4.1----29.88- 61.9- 56.7---
092012:32 pm SE 2.9 4.1----29.88- 61.9- 56.5---
092012:30 pm SE 2.9 4.1----29.88- 62.1- 57.0---
092012:28 pm SE 2.9 4.1----29.88- 61.9- 56.7---
092012:26 pm SE 2.9 4.1----29.88- 61.9- 56.5---
092012:24 pm SE 1.9 4.1----29.88- 61.9- 56.7---
092012:22 pm SE 2.9 4.1----29.88- 61.9- 56.3---
092012:20 pm SE 2.9 4.1----29.88- 62.1- 56.3---
092012:18 pmESE 2.9 4.1----29.88- 62.2- 56.1---
092012:16 pm SE 2.9 4.1----29.88- 62.4- 55.8---
092012:14 pmSSE 1.9 2.9----29.88- 62.8- 56.1---
092012:12 pm SE 1.9 2.9----29.88- 63.0- 55.9---
092012:10 pm SE 1.9 2.9----29.88- 63.1- 56.1---
092012:08 pm SE 1.9 1.9----29.88- 63.3- 56.1---
092012:06 pm- 0.0 1.9----29.88- 63.5- 56.5---
092012:04 pmESE 1.0 1.9----29.88- 63.5- 56.7---
092012:02 pmESE 1.0 1.9----29.88- 63.3- 56.1---
092012:00 pmSSE 1.0 1.9----29.88- 63.3- 56.7---
092011:58 am- 0.0 1.9----29.88- 63.1- 56.5---
092011:56 amSSE 1.0 1.9----29.88- 62.8- 56.5---
092011:54 am S 1.9 1.9----29.88- 62.6- 56.3---
092011:52 am SE 1.0 1.9----29.88- 62.6- 56.7---
092011:50 am SE 1.0 1.9----29.88- 62.4- 56.5---
092011:48 amESE 1.0 1.9----29.88+0.03 62.1- 56.7---
092011:46 amESE 1.0 1.9----29.88- 61.7- 56.7---
092011:44 am SE 1.9 2.9----29.88- 61.2- 55.8---
092011:42 am SE 1.9 4.1----29.88- 61.2- 55.8---
092011:40 am SE 1.9 2.9----29.88- 61.0- 55.6---
092011:38 am SE 2.9 2.9----29.88- 60.8- 55.2---
092011:36 amESE 2.9 4.1----29.88- 61.0- 55.4---
092011:34 amESE 2.9 4.1----29.88- 61.0- 55.0---
092011:32 amESE 1.9 4.1----29.88- 61.3- 55.2---
092011:30 amESE 1.9 2.9----29.88- 61.3- 55.2---
092011:28 am E 1.9 1.9----29.88- 61.5- 55.4---
092011:26 am E 1.9 2.9----29.88- 61.5- 55.6---
092011:24 amESE 1.0 1.9----29.88- 61.7- 55.8---
092011:22 amESE 1.0 1.9----29.88- 61.3- 55.9---
092011:20 amESE 1.9 2.9----29.88- 61.2- 55.8---
092011:18 amESE 1.9 2.9----29.88- 61.0- 55.4---
092011:16 am SE 1.0 1.9----29.88- 61.0- 55.8---
092011:14 am SE 1.0 1.9----29.88- 60.8- 55.8---
092011:12 am SE 1.9 2.9----29.88- 60.4- 55.4---
092011:10 am SE 2.9 2.9----29.88- 60.4- 55.2---
092011:08 am SE 2.9 4.1----29.88- 60.4- 55.2---
092011:06 amESE 2.9 4.1----29.88- 60.6- 55.2---
092011:04 am SE 2.9 2.9----29.88- 60.8- 55.2---
092011:02 am SE 1.9 2.9----29.88- 61.0- 55.4---
092011:00 am SE 1.9 1.9----29.88- 61.0- 55.4---
092010:58 amSSE 1.9 1.9----29.88- 60.8- 55.4---
092010:56 amSSE 1.9 1.9----29.88- 60.6- 55.4---
092010:54 am SE 1.9 1.9----29.88- 60.6- 55.4---
092010:52 amSSE 1.9 1.9----29.88- 60.4- 55.4---
092010:50 amSSE 1.9 1.9----29.88- 60.3- 55.4---
092010:48 amSSE 2.9 4.1----29.88- 60.1- 55.0---
092010:46 am SE 2.9 4.1----29.88- 60.1- 55.0---
092010:44 amSSE 2.9 4.1----29.88- 60.1- 55.2---
092010:42 am SE 4.1 4.1----29.88- 59.9- 54.7---
092010:40 am SE 2.9 4.1----29.88- 60.1- 54.5---
092010:38 amSSE 1.9 2.9----29.88- 60.3- 54.9---
092010:36 amSSE 1.9 4.1----29.88- 60.1- 54.7---
092010:34 amSSE 2.9 4.1----29.88- 60.1- 54.5---
092010:32 amSSE 2.9 4.1----29.88- 60.3- 54.5---
092010:30 amSSE 2.9 5.1----29.88- 60.3- 54.1---
092010:28 amSSE 1.9 2.9----29.88- 60.4- 54.3---
092010:26 amSSE 2.9 4.1----29.88- 60.3- 53.8---
092010:24 am S 4.1 5.1----29.88- 60.4- 53.8---
092010:22 amSSE 2.9 5.1----29.88- 61.0- 53.8---
092010:20 am S 1.9 4.1----29.88- 61.5- 54.5---
092010:18 am S 1.0 1.9----29.88- 61.5- 54.9---
092010:16 am S 1.9 4.1----29.87- 61.2- 54.1---
092010:14 am S 1.9 2.9----29.87- 61.3- 54.1---
092010:12 am S 1.9 2.9----29.87- 61.7- 54.9---
092010:10 amSSE 1.9 1.9----29.87- 61.3- 54.5---
092010:08 am S 1.0 1.9----29.87- 61.5- 55.0---
092010:06 am S 1.9 1.9----29.87- 61.3- 54.7---
092010:04 amSSE 1.9 4.1----29.87- 61.3- 54.3---
092010:02 amSSE 1.0 1.9----29.87- 61.7- 54.7---
092010:00 amSSE 1.9 1.9----29.87- 61.7- 54.9---
0920 9:58 am S 1.0 1.9----29.87- 61.7- 54.9---
0920 9:56 am S 1.9 1.9----29.87- 61.5- 55.0---
0920 9:54 am S 1.0 1.9----29.87- 61.5- 55.4---
0920 9:52 am S 1.0 1.9----29.87- 61.3- 55.8---
0920 9:50 am S 1.0 1.9----29.86- 61.2- 55.8---
0920 9:48 am S 1.9 1.9----29.87- 60.8- 55.4---
0920 9:46 am SE 1.0 1.9----29.86- 60.4- 55.4---
0920 9:44 am- 0.0 1.9----29.86- 60.3- 55.6---
0920 9:42 amSSE 1.9 2.9----29.86- 59.9- 54.9---
0920 9:40 amSSE 1.9 4.1----29.86- 59.9- 55.0---
0920 9:38 am SE 1.9 2.9----29.86- 59.7- 54.9---
0920 9:36 am SE 2.9 4.1----29.86- 59.9- 55.0---
0920 9:34 amSSE 2.9 4.1----29.86- 59.7- 54.9---
0920 9:32 am SE 2.9 4.1----29.86- 59.9- 55.0---
0920 9:30 amSSE 1.9 2.9----29.86- 59.9- 55.2---
0920 9:28 am SE 2.9 4.1----29.86- 59.7- 54.9---
0920 9:26 amSSE 1.9 2.9----29.86- 59.9- 55.0---
0920 9:24 am SE 2.9 6.0----29.86- 59.9- 54.9---
0920 9:22 am SE 5.1 7.0----29.86- 59.9- 54.5---
0920 9:20 amSSE 1.0 1.9----29.86- 60.3- 55.0---
0920 9:18 am SE 1.9 2.9----29.86- 60.1- 54.9---
0920 9:16 am- 0.0 1.9----29.86- 60.3- 55.6---
0920 9:14 am SE 1.9 2.9----29.86- 59.9- 54.7---
0920 9:12 amESE 4.1 8.9----29.86- 59.9- 54.3---
0920 9:10 amESE 4.1 8.9----29.86- 60.1- 53.2---
0920 9:08 amESE 8.0 12.0----29.86- 60.6- 53.2---
0920 9:06 amESE 5.1 8.9----29.86- 61.9- 52.9---
0920 9:04 am SE 1.0 7.0----29.86- 62.8- 52.9---
0920 9:02 am S 2.9 7.0----29.86- 62.4- 53.1---
0920 9:00 am- 0.0 1.0----29.86- 62.4- 53.2---
0920 8:58 am SW 1.9 1.9----29.85- 61.7- 52.0---
0920 8:56 am S 1.9 2.9----29.85- 61.7- 52.2---
0920 8:54 am S 2.9 4.1----29.85- 61.9- 52.7---
0920 8:52 am E 1.9 1.9----29.85- 62.6- 54.5---
0920 8:50 am- 0.0 1.0----29.85- 62.8- 55.8---
0920 8:48 am- 0.0 1.0----29.85+0.06 62.8- 55.9---
0920 8:46 am- 0.0 1.0----29.85- 62.4- 55.8---
0920 8:44 am NE 1.0 1.9----29.85- 61.9- 55.4---
0920 8:42 am- 0.0 1.0----29.85- 61.7- 55.4---
0920 8:40 am- 0.0 1.0----29.85- 61.5- 55.4---
0920 8:38 am- 0.0 1.9----29.85- 61.3- 55.2---
0920 8:36 am E 1.9 1.9----29.85- 60.8- 54.3---
0920 8:34 am- 0.0 1.9----29.85- 61.0- 54.5---
0920 8:32 am E 1.9 1.9----29.85- 61.0- 54.9---
0920 8:30 am- 0.0 1.9----29.85- 61.3- 55.4---
0920 8:28 am- 0.0 1.0----29.85- 61.5- 55.6---
0920 8:26 am- 0.0 1.9----29.85- 61.2- 55.4---
0920 8:24 am- 0.0 1.9----29.85- 60.8- 55.2---
0920 8:22 am E 1.0 1.9----29.84- 60.4- 54.7---
0920 8:20 am E 1.9 1.9----29.84- 60.3- 54.1---
0920 8:18 am E 1.0 1.9----29.84- 60.3- 53.4---
0920 8:16 am E 1.9 2.9----29.84- 59.9- 52.7---
0920 8:14 am E 1.0 1.9----29.84- 60.3- 53.2---
0920 8:12 am- 0.0 2.9----29.84- 59.9- 52.7---
0920 8:10 am E 1.9 1.9----29.84- 59.9- 52.7---
0920 8:08 am E 1.9 1.9----29.84- 59.9- 52.7---
0920 8:06 amENE 1.0 1.9----29.84- 59.9- 52.3---
0920 8:04 amENE 1.0 1.9----29.84- 59.9- 52.9---
0920 8:02 am- 0.0 1.9----29.84- 60.1- 53.8---
0920 8:00 amENE 1.9 1.9----29.84- 59.9- 53.8---
0920 7:58 am E 1.9 1.9----29.84- 59.9- 53.4---
0920 7:56 am E 1.9 2.9----29.84- 59.9- 53.1---
0920 7:54 am E 1.9 2.9----29.84- 59.7- 53.2---
0920 7:52 am E 1.0 1.9----29.84- 59.9- 55.0---
0920 7:50 am- 0.0 1.0----29.84- 60.1- 56.1---
0920 7:48 am- 0.0 1.0----29.84+0.05 59.9- 55.9---
0920 7:46 am E 1.0 1.9----29.84- 59.5- 55.4---
0920 7:44 am E 1.0 1.9----29.84- 59.7- 55.9---
0920 7:42 am- 0.0 1.0----29.84- 59.7- 56.1---
0920 7:40 am- 0.0 1.0----29.84- 59.5- 55.9---
0920 7:38 am E 1.9 1.9----29.84- 59.2- 55.4---
0920 7:36 am E 2.9 4.1----29.84- 59.0- 55.2---
0920 7:34 amESE 1.9 2.9----29.84- 59.2- 55.2---
0920 7:32 am E 2.9 4.1----29.83- 59.0- 55.0---
0920 7:30 am E 4.1 5.1----29.83- 59.2- 54.9---
0920 7:28 am E 5.1 5.1----29.83- 59.2- 54.5---
0920 7:26 am E 4.1 5.1----29.83- 59.5- 54.3---
0920 7:24 am E 2.9 5.1----29.83- 59.9- 54.1---
0920 7:22 am E 1.9 2.9----29.83- 59.9- 53.4---
0920 7:20 am E 1.9 2.9----29.83- 59.9- 52.2---
0920 7:18 am E 2.9 4.1----29.83- 59.4- 49.1---
0920 7:16 amENE 2.9 4.1----29.82- 59.4- 46.6---
0920 7:14 am NE 4.1 5.1----29.82- 59.9- 46.6---
0920 7:12 amENE 4.1 5.1----29.82- 60.3- 47.3---
0920 7:10 am NE 4.1 5.1----29.82- 60.4- 45.0---
0920 7:08 amENE 2.9 4.1----29.82- 60.8- 45.7---
0920 7:06 am NE 2.9 4.1----29.82- 60.4- 45.1---
0920 7:04 am NE 2.9 4.1----29.82- 60.6- 46.2---
0920 7:02 am NE 2.9 4.1----29.82- 60.8- 47.5---
0920 7:00 am NE 2.9 4.1----29.82- 61.2- 47.8---
0920 6:58 amENE 2.9 5.1----29.82- 61.7- 48.6---
0920 6:56 amENE 4.1 5.1----29.82- 62.6- 49.5---
0920 6:54 am NE 5.1 7.0----29.81- 63.1- 49.6---
0920 6:52 am NE 7.0 8.0----29.81- 63.7- 48.7---
0920 6:50 amNNE 8.0 8.9----29.81- 63.0- 46.8---
0920 6:48 amNNE 6.0 8.9----29.81+0.02 60.8- 46.0---
0920 6:46 amWSW 1.0 5.1----29.81- 59.0- 45.9---
0920 6:44 am- 0.0 2.9----29.81- 59.0- 46.0---
0920 6:42 am N 1.9 4.1----29.81- 59.2- 46.2---
0920 6:40 am N 1.9 4.1----29.81- 59.9- 46.4---
0920 6:38 am N 2.9 5.1----29.81- 60.3- 45.9---
0920 6:36 am N 2.9 4.1----29.81- 60.8- 46.9---
0920 6:34 am N 4.1 5.1----29.81- 61.5- 46.0---
0920 6:32 amNNW 2.9 4.1----29.81- 61.2- 46.6---
0920 6:30 am N 1.9 2.9----29.81- 61.5- 47.5---
0920 6:28 am N 1.9 4.1----29.81- 61.7- 46.0---
0920 6:26 am N 2.9 4.1----29.81- 61.5- 45.5---
0920 6:24 am N 2.9 4.1----29.81- 61.7- 45.9---
0920 6:22 am N 4.1 5.1----29.80- 62.4- 46.4---
0920 6:20 am N 4.1 5.1----29.80- 62.1- 46.8---
0920 6:18 am N 2.9 5.1----29.80- 61.9- 46.9---
0920 6:16 amNNE 4.1 5.1----29.80- 61.2- 47.3---
0920 6:14 am NE 2.9 4.1----29.80- 60.6- 47.5---
0920 6:12 am- 0.0 1.9----29.80- 60.3- 47.1---
0920 6:10 am N 2.9 6.0----29.80- 60.3- 46.9---
0920 6:08 am N 4.1 5.1----29.80- 60.3- 46.8---
0920 6:06 am N 2.9 5.1----29.80- 59.9- 46.2---
0920 6:04 am N 2.9 4.1----29.80- 60.3- 45.9---
0920 6:02 am N 2.9 4.1----29.80- 60.4- 45.9---
0920 6:00 am N 2.9 5.1----29.80- 60.8- 46.9---
0920 5:58 am N 4.1 6.0----29.80- 60.8- 47.1---
0920 5:56 amNNW 4.1 5.1----29.80- 61.2- 47.3---
0920 5:54 am N 4.1 6.0----29.80- 60.8- 47.5---
0920 5:52 am N 4.1 5.1----29.80- 60.8- 48.2---
0920 5:50 am N 6.0 8.9----29.79- 60.1- 46.9---
0920 5:48 am N 6.0 8.0----29.79+0.00 59.4- 46.4---
0920 5:46 am N 6.0 8.0----29.79- 59.0- 46.4---
0920 5:44 am N 6.0 7.0----29.79- 59.4- 47.1---
0920 5:42 am N 5.1 7.0----29.80- 58.8- 47.1---
0920 5:40 am N 2.9 5.1----29.80- 57.9- 47.1---
0920 5:38 amNNE 4.1 4.1----29.79- 57.9- 48.7---
0920 5:36 amNNE 2.9 4.1----29.79- 58.5- 50.5---
0920 5:34 am NE 2.9 4.1----29.79- 59.2- 50.9---
0920 5:32 am NE 1.9 2.9----29.79- 59.9- 51.3---
0920 5:30 am NE 2.9 4.1----29.79- 59.9- 50.4---
0920 5:28 am NE 2.9 5.1----29.79- 59.5- 49.3---
0920 5:26 amNNE 6.0 7.0----29.79- 58.8- 46.9---
0920 5:24 amNNE 4.1 6.0----29.79- 58.1- 46.9---
0920 5:22 amNNE 5.1 7.0----29.79- 57.9- 47.5---
0920 5:20 am N 4.1 5.1----29.79- 58.3- 47.7---
0920 5:18 am N 1.9 4.1----29.79- 58.5- 48.0---
0920 5:16 am N 2.9 4.1----29.79- 58.5- 48.4---
0920 5:14 am N 2.9 4.1----29.79- 58.8- 49.1---
0920 5:12 amNNW 2.9 5.1----29.79- 58.5- 48.6---
0920 5:10 am NW 1.9 2.9----29.79- 57.7- 49.3---
0920 5:08 am N 1.9 4.1----29.79- 57.4- 48.9---
0920 5:06 am N 5.1 7.0----29.79- 57.2- 48.2---
0920 5:04 am N 4.1 7.0----29.79- 57.0- 48.6---
0920 5:02 am N 1.9 4.1----29.79- 57.6- 49.5---
0920 5:00 am N 1.9 4.1----29.79- 57.7- 49.8---
0920 4:58 am N 2.9 4.1----29.79- 57.9- 50.0---
0920 4:56 amNNW 4.1 5.1----29.79- 57.2- 49.8---
0920 4:54 am W 1.9 2.9----29.79- 57.2- 51.3---
0920 4:52 amWSW 1.9 1.9----29.79- 57.2- 51.3---
0920 4:50 amNNW 1.0 1.9----29.79- 56.3- 51.3---
0920 4:48 amNNW 1.9 1.9----29.79-0.01 56.1- 51.8---
0920 4:46 am N 4.1 5.1----29.79- 55.6- 51.3---
0920 4:44 am N 5.1 5.1----29.79- 55.6- 51.4---
0920 4:42 am N 4.1 5.1----29.79- 55.8- 51.6---
0920 4:40 am N 2.9 5.1----29.79- 55.8- 51.8---
0920 4:38 am N 2.9 5.1----29.79- 55.9- 52.0---
0920 4:36 am N 1.9 4.1----29.79- 56.1- 52.2---
0920 4:34 am N 2.9 5.1----29.79- 55.9- 52.2---
0920 4:32 am N 2.9 4.1----29.79- 56.1- 52.5---
0920 4:30 am N 1.9 4.1----29.79- 56.5- 52.9---
0920 4:28 am N 1.0 1.9----29.79- 56.5- 52.7---
0920 4:26 am N 1.9 2.9----29.79- 56.5- 52.9---
0920 4:24 amNNE 1.9 1.9----29.79- 56.7- 53.1---
0920 4:22 am NE 1.9 2.9----29.79- 56.7- 53.1---
0920 4:20 amNNE 1.9 1.9----29.79- 56.5- 52.9---
0920 4:18 am NE 1.0 1.9----29.79- 56.5- 52.7---
0920 4:16 amNNE 1.0 1.9----29.79- 56.1- 52.3---
0920 4:14 am NE 1.9 1.9----29.79- 55.9- 52.2---
0920 4:12 am N 1.0 1.9----29.79- 55.8- 51.8---
0920 4:10 am N 1.9 4.1----29.79- 55.4- 51.3---
0920 4:08 amNNE 4.1 4.1----29.79- 55.4- 51.3---
0920 4:06 amNNE 2.9 4.1----29.79- 55.0- 50.5---
0920 4:04 am NE 4.1 5.1----29.79- 55.0- 50.5---
0920 4:02 amENE 4.1 5.1----29.79- 55.4- 51.1---
0920 4:00 amENE 2.9 4.1----29.79- 55.4- 51.3---
0920 3:58 am NE 2.9 4.1----29.79- 55.8- 51.6---
0920 3:56 amENE 2.9 4.1----29.79- 56.3- 52.5---
0920 3:54 am NE 1.9 2.9----29.79- 56.1- 52.3---
0920 3:52 amENE 1.0 1.9----29.79- 55.8- 52.0---
0920 3:50 amENE 1.9 2.9----29.79- 55.6- 51.6---
0920 3:48 am- 0.0 1.0----29.79+0.00 55.0- 51.1---
0920 3:46 am- 0.0 1.9----29.79- 55.0- 51.3---
0920 3:44 am- 0.0 1.0----29.79- 54.7- 50.9---
0920 3:42 am- 0.0 1.0----29.79- 54.5- 50.7---
0920 3:40 am NE 1.0 1.9----29.79- 54.5- 50.5---
0920 3:38 am N 1.0 1.9----29.79- 54.3- 50.5---
0920 3:36 am N 1.9 2.9----29.79- 54.5- 50.9---
0920 3:34 am N 1.0 4.1----29.79- 54.3- 50.7---
0920 3:32 am NE 1.9 4.1----29.79- 54.1- 50.5---
0920 3:30 amNNE 2.9 4.1----29.79- 54.0- 50.5---
0920 3:28 amNNE 2.9 4.1----29.79- 54.5- 51.4---
0920 3:26 amNNE 1.9 4.1----29.79- 54.5- 51.3---
0920 3:24 amNNE 1.9 4.1----29.79- 54.3- 51.1---
0920 3:22 amNNE 1.9 4.1----29.79- 54.5- 51.3---
0920 3:20 am N 1.9 4.1----29.79- 54.1- 50.7---
0920 3:18 am N 1.0 2.9----29.79- 54.3- 51.1---
0920 3:16 am N 1.9 2.9----29.79- 54.5- 51.1---
0920 3:14 am N 1.9 1.9----29.79- 54.7- 51.6---
0920 3:12 am- 0.0 1.9----29.79- 55.2- 52.3---
0920 3:10 am- 0.0 1.9----29.79- 55.4- 52.5---
0920 3:08 amNNW 1.0 1.9----29.79- 55.6- 52.9---
0920 3:06 amNNW 1.9 1.9----29.79- 55.4- 52.5---
0920 3:04 amNNW 1.9 1.9----29.79- 55.0- 52.0---
0920 3:02 am N 1.9 1.9----29.79- 55.0- 52.0---
0920 3:00 am N 1.9 1.9----29.79- 55.2- 52.2---
0920 2:58 amNNW 1.0 1.9----29.79- 55.0- 52.0---
0920 2:56 am N 1.9 1.9----29.79- 54.9- 51.6---
0920 2:54 am N 1.9 1.9----29.79- 54.7- 51.3---
0920 2:52 amNNE 1.0 1.9----29.79- 55.0- 51.8---
0920 2:50 amNNE 1.9 2.9----29.79- 54.9- 51.4---
0920 2:48 amNNE 1.0 1.9----29.79-0.01 54.9- 51.3---
0920 2:46 amNNE 1.9 2.9----29.79- 54.7- 51.1---
0920 2:44 amNNE 1.0 2.9----29.79- 55.0- 51.6---
0920 2:42 amNNE 1.0 1.9----29.79- 55.6- 52.2---
0920 2:40 am NE 1.0 1.9----29.79- 55.6- 52.2---
0920 2:38 am- 0.0 1.9----29.79- 55.6- 52.0---
0920 2:36 am- 0.0 1.9----29.79- 55.6- 52.0---
0920 2:34 am- 0.0 1.9----29.79- 55.8- 52.2---
0920 2:32 am- 0.0 1.9----29.80- 55.8- 52.2---
0920 2:30 am- 0.0 1.0----29.80- 55.8- 52.2---
0920 2:28 am- 0.0 1.0----29.80- 55.8- 52.2---
0920 2:26 am- 0.0 1.0----29.80- 55.6- 52.0---
0920 2:24 amENE 1.0 1.9----29.80- 55.8- 52.0---
0920 2:22 am- 0.0 1.0----29.80- 55.6- 51.6---
0920 2:20 am- 0.0 1.0----29.80- 55.4- 51.4---
0920 2:18 am- 0.0 1.0----29.80- 55.4- 51.4---
0920 2:16 am- 0.0 1.0----29.80- 55.6- 51.6---
0920 2:14 am- 0.0 1.0----29.80- 55.8- 51.8---
0920 2:12 am- 0.0 1.0----29.80- 55.8- 51.8---
0920 2:10 am- 0.0 1.0----29.80- 55.8- 51.8---
0920 2:08 am- 0.0 1.0----29.80- 55.6- 51.4---
0920 2:06 am- 0.0 1.0----29.80- 55.6- 51.6---
0920 2:04 am NE 1.0 1.9----29.80- 55.8- 51.8---
0920 2:02 am NE 1.0 1.9----29.80- 55.8- 51.8---
0920 2:00 amENE 1.0 1.9----29.80- 55.8- 51.8---
0920 1:58 am NE 1.0 1.9----29.80- 55.6- 51.4---
0920 1:56 am NE 1.9 1.9----29.80- 55.4- 51.3---
0920 1:54 amNNE 1.9 1.9----29.80- 55.2- 50.9---
0920 1:52 amNNE 1.9 2.9----29.80- 55.2- 50.9---
0920 1:50 am NE 1.9 2.9----29.80- 55.2- 51.1---
0920 1:48 amNNE 1.9 4.1----29.80-0.01 55.0- 50.9---
0920 1:46 amNNE 1.9 2.9----29.80- 55.0- 50.7---
0920 1:44 amNNE 1.9 1.9----29.80- 54.7- 50.2---
0920 1:42 am NE 1.0 1.9----29.80- 54.7- 50.2---
0920 1:40 am- 0.0 1.9----29.80- 54.7- 50.2---
0920 1:38 am- 0.0 1.0----29.80- 54.7- 50.0---
0920 1:36 am- 0.0 1.0----29.80- 54.7- 50.0---
0920 1:34 am- 0.0 1.0----29.80- 54.5- 49.8---
0920 1:32 am- 0.0 1.0----29.80- 54.7- 50.0---
0920 1:30 am- 0.0 1.0----29.80- 54.7- 50.0---
0920 1:28 am- 0.0 1.0----29.80- 54.7- 49.8---
0920 1:26 am- 0.0 1.0----29.80- 54.5- 49.3---
0920 1:24 am- 0.0 1.0----29.81- 54.5- 49.3---
0920 1:22 am- 0.0 1.0----29.80- 54.5- 49.1---
0920 1:20 am NE 1.0 1.9----29.80- 54.5- 48.9---
0920 1:18 am- 0.0 1.9----29.80- 54.5- 48.9---
0920 1:16 am- 0.0 1.0----29.80- 54.5- 48.9---
0920 1:14 am N 1.9 4.1----29.80- 54.5- 49.1---
0920 1:12 am N 1.9 4.1----29.80- 54.7- 49.1---
0920 1:10 amNNE 2.9 4.1----29.80- 54.7- 49.1---
0920 1:08 amNNE 2.9 4.1----29.80- 55.0- 49.3---
0920 1:06 amNNE 1.9 4.1----29.80- 55.2- 49.6---
0920 1:04 amNNE 1.9 1.9----29.80- 55.4- 49.8---
0920 1:02 am- 0.0 1.9----29.80- 55.9- 50.5---
0920 1:00 am- 0.0 1.0----29.80- 56.1- 50.7---
092012:58 am- 0.0 1.9----29.80- 56.1- 50.7---
092012:56 am NW 1.9 1.9----29.80- 56.1- 50.9---
092012:54 am NW 1.9 1.9----29.80- 56.1- 50.9---
092012:52 am- 0.0 1.9----29.80- 56.1- 50.7---
092012:50 am- 0.0 1.0----29.80- 56.1- 50.7---
092012:48 am- 0.0 1.0----29.80- 56.3- 50.9---
092012:46 am- 0.0 1.0----29.80- 56.5- 51.1---
092012:44 am- 0.0 1.9----29.80- 56.3- 50.7---
092012:42 am- 0.0 1.9----29.80- 56.3- 50.5---
092012:40 amNNE 1.9 1.9----29.80- 55.9- 50.0---
092012:38 am NE 1.9 2.9----29.80- 55.9- 50.0---
092012:36 am NE 2.9 4.1----29.80- 55.9- 50.0---
092012:34 amENE 2.9 4.1----29.80- 55.9- 50.0---
092012:32 am NE 2.9 4.1----29.80- 55.8- 49.6---
092012:30 am NE 2.9 4.1----29.80- 55.8- 49.6---
092012:28 am NE 2.9 4.1----29.80- 55.8- 49.8---
092012:26 amNNE 2.9 4.1----29.80- 55.4- 49.3---
092012:24 amNNE 2.9 4.1----29.80- 55.4- 49.1---
092012:22 am N 4.1 5.1----29.80- 55.6- 49.3---
092012:20 am N 1.9 4.1----29.80- 55.6- 49.3---
092012:18 am N 1.9 4.1----29.80- 55.8- 49.5---
092012:16 am N 1.9 2.9----29.80- 55.8- 49.3---
092012:14 am N 1.9 2.9----29.80- 55.8- 49.3---
092012:12 am N 1.9 1.9----29.80- 55.9- 49.3---
092012:10 am N 1.9 1.9----29.80- 55.9- 49.3---
092012:08 am N 1.9 2.9----29.80- 55.9- 49.3---
092012:06 am N 1.0 1.9----29.80- 56.1- 49.5---
092012:04 am- 0.0 1.0----29.80- 56.1- 49.3---
092012:02 am- 0.0 1.0----29.81- 56.3- 49.6---
092012:00 am N 1.9 1.9----29.81- 56.3- 49.6---
091911:58 pm N 1.0 1.9----29.80- 56.3- 49.5---
091911:56 pm N 1.0 1.9----29.80- 56.5- 49.8---
091911:54 pm N 1.0 1.9----29.80- 56.7- 49.8---
091911:52 pm- 0.0 1.0----29.80- 56.5- 49.5---
091911:50 pm N 1.0 1.9----29.80- 56.5- 49.6---
091911:48 pmNNE 2.9 4.1----29.80+0.00 56.5- 50.0---
091911:46 pmNNE 1.9 2.9----29.80- 56.3- 49.8---
091911:44 pm N 1.0 2.9----29.80- 55.9- 49.5---
091911:42 pm- 0.0 1.9----29.80- 55.9- 49.6---
091911:40 pm- 0.0 1.9----29.80- 56.1- 49.8---
091911:38 pmNNE 1.0 1.9----29.80- 56.1- 50.0---
091911:36 pm NE 1.9 2.9----29.80- 56.3- 50.0---
091911:34 pm NE 1.9 2.9----29.81- 56.3- 50.2---
091911:32 pmNNE 2.9 4.1----29.80- 56.3- 50.0---
091911:30 pmNNE 2.9 4.1----29.81- 56.1- 49.8---
091911:28 pm N 2.9 4.1----29.80- 56.1- 49.6---
091911:26 pm N 2.9 4.1----29.80- 56.3- 49.8---
091911:24 pmNNE 4.1 5.1----29.80- 56.5- 50.0---
091911:22 pmNNE 4.1 5.1----29.80- 56.5- 50.0---
091911:20 pm N 2.9 4.1----29.80- 56.3- 49.8---
091911:18 pm N 4.1 5.1----29.80- 56.1- 49.5---
091911:16 pm N 4.1 5.1----29.80- 55.8- 49.3---
091911:14 pm N 4.1 5.1----29.80- 55.8- 49.6---
091911:12 pm N 4.1 5.1----29.81- 55.9- 50.0---
091911:10 pm N 4.1 5.1----29.80- 56.1- 50.2---
091911:08 pm N 5.1 6.0----29.81- 56.1- 50.0---
091911:06 pm N 5.1 6.0----29.81- 56.1- 50.0---
091911:04 pmNNE 5.1 7.0----29.81- 56.1- 50.0---
091911:02 pm N 5.1 6.0----29.81- 56.3- 50.0---
091911:00 pmNNE 5.1 7.0----29.81- 56.3- 49.8---
091910:58 pmNNE 5.1 6.0----29.81- 56.3- 49.8---
091910:56 pmNNE 5.1 6.0----29.81- 56.3- 49.8---
091910:54 pmNNE 5.1 6.0----29.81- 56.5- 49.8---
091910:52 pmNNE 5.1 6.0----29.81- 56.5- 49.8---
091910:50 pmNNE 4.1 6.0----29.81- 56.5- 49.8---
091910:48 pmNNE 5.1 6.0----29.81+0.02 56.7- 50.0---
091910:46 pmNNE 5.1 6.0----29.81- 56.8- 50.2---
091910:44 pmNNE 5.1 6.0----29.81- 56.7- 50.2---
091910:42 pmNNE 4.1 5.1----29.81- 56.7- 50.4---
091910:40 pmNNE 5.1 5.1----29.81- 56.7- 50.2---
091910:38 pmNNE 4.1 5.1----29.81- 56.8- 50.4---
091910:36 pmNNE 4.1 5.1----29.81- 57.0- 50.5---
091910:34 pmNNE 4.1 5.1----29.81- 57.0- 50.4---
091910:32 pmNNE 4.1 5.1----29.81- 57.0- 50.2---
091910:30 pmNNE 2.9 4.1----29.81- 57.2- 50.0---
091910:28 pm N 1.9 4.1----29.81- 57.2- 49.6---
091910:26 pm N 1.9 2.9----29.81- 57.2- 49.5---
091910:24 pm N 1.9 2.9----29.81- 57.2- 49.3---
091910:22 pm N 1.9 2.9----29.81- 57.2- 49.1---
091910:20 pm N 1.9 4.1----29.81- 57.2- 48.9---
091910:18 pm N 1.9 4.1----29.81- 57.2- 49.1---
091910:16 pm N 2.9 4.1----29.81- 57.2- 49.3---
091910:14 pm N 2.9 5.1----29.81- 57.2- 49.3---
091910:12 pm N 2.9 5.1----29.81- 57.2- 49.5---
091910:10 pm N 2.9 4.1----29.81- 57.2- 49.3---
091910:08 pm N 2.9 4.1----29.81- 57.2- 49.5---
091910:06 pm N 2.9 5.1----29.81- 57.6- 50.4---
091910:04 pm N 4.1 5.1----29.81- 57.7- 50.4---
091910:02 pm N 4.1 5.1----29.81- 57.7- 50.2---
091910:00 pm N 2.9 4.1----29.81- 57.7- 50.0---
0919 9:58 pmNNE 2.9 4.1----29.81- 57.9- 50.0---
0919 9:56 pm N 1.9 4.1----29.81- 57.9- 49.8---
0919 9:54 pm N 1.9 4.1----29.81- 58.1- 50.0---
0919 9:52 pm N 1.9 4.1----29.81- 58.1- 49.8---
0919 9:50 pm N 1.9 2.9----29.81- 58.1- 49.5---
0919 9:48 pm N 1.9 4.1----29.81+0.03 58.1- 49.3---
0919 9:46 pm N 1.0 1.9----29.81- 58.1- 49.3---
0919 9:44 pm N 1.0 1.9----29.81- 58.3- 49.5---
0919 9:42 pmNNW 1.0 1.9----29.81- 58.5- 49.8---
0919 9:40 pm N 2.9 4.1----29.81- 58.5- 49.5---
0919 9:38 pm N 2.9 4.1----29.81- 58.5- 49.5---
0919 9:36 pm N 1.9 4.1----29.81- 58.6- 49.6---
0919 9:34 pmNNW 1.0 1.9----29.81- 58.8- 49.6---
0919 9:32 pmWNW 1.0 1.9----29.81- 59.0- 49.8---
0919 9:30 pm NW 1.9 2.9----29.81- 59.2- 49.5---
0919 9:28 pm NW 1.9 2.9----29.81- 59.0- 49.3---
0919 9:26 pm NW 1.9 2.9----29.81- 59.2- 49.6---
0919 9:24 pm NW 1.9 1.9----29.81- 59.2- 49.8---
0919 9:22 pmNNW 1.0 1.9----29.81- 59.5- 50.7---
0919 9:20 pm N 1.9 4.1----29.81- 59.5- 50.5---
0919 9:18 pm N 2.9 4.1----29.81- 59.5- 50.2---
0919 9:16 pm N 1.9 4.1----29.81- 59.4- 50.2---
0919 9:14 pm N 1.9 2.9----29.81- 59.5- 50.4---
0919 9:12 pm N 1.9 2.9----29.81- 59.5- 50.2---
0919 9:10 pm N 1.9 4.1----29.81- 59.7- 50.2---
0919 9:08 pm N 1.9 4.1----29.81- 59.9- 50.4---
0919 9:06 pm N 2.9 4.1----29.81- 59.9- 50.4---
0919 9:04 pm N 2.9 4.1----29.81- 59.9- 50.2---
0919 9:02 pm N 2.9 5.1----29.81- 59.9- 50.0---
0919 9:00 pm N 2.9 4.1----29.81- 59.9- 50.4---
0919 8:58 pm N 2.9 4.1----29.81- 60.1- 50.4---
0919 8:56 pm N 4.1 4.1----29.81- 60.1- 50.4---
0919 8:54 pm N 2.9 5.1----29.81- 60.1- 50.2---
0919 8:52 pm N 4.1 5.1----29.81- 60.3- 50.2---
0919 8:50 pmNNE 4.1 5.1----29.80- 60.4- 50.4---
0919 8:48 pm N 5.1 5.1----29.80+0.04 60.4- 50.0---
0919 8:46 pmNNE 5.1 6.0----29.80- 60.6- 50.0---
0919 8:44 pmNNE 5.1 7.0----29.80- 60.6- 50.0---
0919 8:42 pmNNE 6.0 7.0----29.80- 60.8- 50.4---
0919 8:40 pmNNE 6.0 7.0----29.80- 60.8- 50.4---
0919 8:38 pmNNE 6.0 7.0----29.80- 60.8- 50.2---
0919 8:36 pmNNE 6.0 7.0----29.80- 60.8- 50.2---
0919 8:34 pmNNE 5.1 7.0----29.80- 60.8- 50.2---
0919 8:32 pmNNE 5.1 6.0----29.80- 60.8- 50.4---
0919 8:30 pmNNE 5.1 7.0----29.80- 61.0- 50.5---
0919 8:28 pmNNE 5.1 6.0----29.80- 61.2- 50.5---
0919 8:26 pmNNE 5.1 6.0----29.80- 61.2- 50.5---
0919 8:24 pmNNE 5.1 6.0----29.80- 61.3- 50.9---
0919 8:22 pmNNE 5.1 6.0----29.80- 61.3- 50.7---
0919 8:20 pm N 5.1 6.0----29.80- 61.2- 50.7---
0919 8:18 pm N 2.9 5.1----29.80- 60.6- 51.6---
0919 8:16 pm N 1.9 2.9----29.80- 60.6- 51.8---
0919 8:14 pm N 2.9 2.9----29.79- 60.6- 52.2---
0919 8:12 pmNNW 1.9 2.9----29.79- 61.0- 53.4---
0919 8:10 pmNNW 1.9 2.9----29.79- 61.2- 53.8---
0919 8:08 pmNNW 1.9 2.9----29.79- 61.3- 54.1---
0919 8:06 pm N 1.9 1.9----29.79- 61.7- 54.5---
0919 8:04 pm- 0.0 1.0----29.79- 61.7- 54.0---
0919 8:02 pm- 0.0 1.0----29.79- 61.9- 54.1---
0919 8:00 pm- 0.0 1.0----29.79- 61.9- 54.1---
0919 7:58 pm E 1.9 2.9----29.79- 61.9- 54.0---
0919 7:56 pmESE 4.1 4.1----29.79- 61.7- 54.0---
0919 7:54 pmESE 4.1 5.1----29.79- 61.7- 53.8---
0919 7:52 pm SE 4.1 5.1----29.79- 61.5- 54.0---
0919 7:50 pm SE 4.1 5.1----29.79- 61.5- 53.8---
0919 7:48 pm SE 4.1 4.1----29.79+0.02 61.7- 54.3---
0919 7:44 pmESE 2.9 2.9----29.79- 62.1- 54.1---
0919 7:42 pm E 2.9 4.1----29.79- 62.2- 54.0---
0919 7:40 pmESE 2.9 4.1----29.79- 62.2- 54.1---
0919 7:38 pm E 1.0 1.9----29.79- 62.4- 54.1---
0919 7:36 pm- 0.0 2.9----29.79- 62.4- 53.6---
0919 7:34 pmESE 1.9 4.1----29.78- 62.4- 53.6---
0919 7:32 pm E 1.9 4.1----29.79- 62.4- 53.6---
0919 7:30 pm SE 1.9 2.9----29.78- 62.4- 54.3---
0919 7:28 pm S 1.0 1.9----29.78- 62.8- 54.1---
0919 7:26 pmSSW 1.0 1.9----29.79- 63.0- 53.8---
0919 7:24 pm SE 1.9 4.1----29.79- 63.5- 54.3---
0919 7:22 pm E 5.1 7.0----29.78- 63.5- 53.4---
0919 7:20 pm E 6.0 7.0----29.78- 63.5- 52.0---
0919 7:18 pm E 6.0 7.0----29.78- 63.7- 52.9---
0919 7:16 pm E 6.0 7.0----29.78- 64.0- 52.3---
0919 7:14 pmESE 7.0 7.0----29.78- 64.0- 52.9---
0919 7:12 pm E 7.0 7.0----29.78- 64.0- 51.8---
0919 7:10 pm E 7.0 7.0----29.78- 63.5- 52.9---
0919 7:08 pm E 8.0 8.9----29.78- 64.0- 52.5---
0919 7:06 pm E 8.0 8.9----29.78- 64.6- 51.1---
0919 7:04 pm E 7.0 8.0----29.78- 64.2- 51.8---
0919 7:02 pm E 7.0 8.0----29.78- 64.8- 51.3---
0919 7:00 pm E 7.0 8.0----29.78- 64.6- 51.1---
0919 6:58 pm E 7.0 8.0----29.78- 64.6- 51.3---
0919 6:56 pm E 7.0 7.0----29.78- 64.4- 52.7---
0919 6:54 pm E 6.0 7.0----29.78- 64.9- 51.4---
0919 6:52 pm E 6.0 7.0----29.78- 65.1- 51.6---
0919 6:50 pm E 7.0 7.0----29.78- 65.8- 50.5---
0919 6:48 pm E 6.0 7.0----29.78+0.01 65.8- 51.1---
0919 6:46 pm E 6.0 7.0----29.78- 66.0- 50.7---
0919 6:44 pm E 5.1 7.0----29.78- 65.8- 50.4---
0919 6:42 pm E 6.0 7.0----29.78- 66.2- 50.7---
0919 6:40 pm E 7.0 8.0----29.78- 66.6- 50.4---
0919 6:38 pm E 6.0 7.0----29.78- 66.6- 50.7---
0919 6:36 pm E 5.1 7.0----29.77- 66.4- 51.3---
0919 6:34 pm E 6.0 7.0----29.77- 66.2- 51.3---
0919 6:32 pm E 7.0 8.9----29.77- 65.8- 51.3---
0919 6:30 pm E 5.1 7.0----29.78- 65.7- 53.1---
0919 6:28 pm E 5.1 7.0----29.77- 65.7- 52.3---
0919 6:26 pm E 2.9 5.1----29.77- 65.8- 52.7---
0919 6:24 pm E 5.1 6.0----29.77- 65.8- 53.2---
0919 6:22 pm E 4.1 7.0----29.77- 65.8- 53.1---
0919 6:20 pm E 4.1 6.0----29.77- 66.0- 53.4---
0919 6:18 pm E 5.1 7.0----29.77- 65.8- 52.9---
0919 6:16 pm E 5.1 6.0----29.77- 66.0- 52.3---
0919 6:14 pm E 4.1 5.1----29.77- 67.1- 50.7---
0919 6:12 pmENE 2.9 5.1----29.77- 67.6- 51.1---
0919 6:10 pmENE 2.9 5.1----29.77- 68.5- 50.9---
0919 6:08 pm NE 2.9 5.1----29.77- 69.3- 52.3---
0919 6:06 pm- 0.0 1.9----29.77- 71.4- 50.9---
0919 6:04 pm- 0.0 1.9----29.77- 71.8- 51.3---
0919 6:02 pm- 0.0 1.0----29.77- 71.8- 52.3---
0919 6:00 pm- 0.0 1.0----29.77- 71.6- 54.0---
0919 5:58 pm- 0.0 1.0----29.77- 71.4- 54.7---
0919 5:56 pm- 0.0 1.0----29.77- 70.5- 53.6---
0919 5:54 pm- 0.0 1.9----29.77- 69.8- 52.2---
0919 5:52 pm- 0.0 1.0----29.77- 69.8- 51.6---
0919 5:50 pm E 1.0 2.9----29.77- 70.0- 52.3---
0919 5:48 pmESE 1.0 1.9----29.77+0.00 70.7- 52.0---
0919 5:46 pm- 0.0 1.9----29.77- 71.2- 50.9---
0919 5:44 pm- 0.0 1.9----29.77- 71.1- 51.3---
0919 5:42 pm S 1.0 2.9----29.77- 70.5- 51.8---
0919 5:40 pmSSE 1.9 2.9----29.77- 69.8- 51.1---
0919 5:38 pmESE 2.9 4.1----29.77- 69.4- 51.6---
0919 5:36 pm E 1.9 2.9----29.77- 70.2- 51.1---
0919 5:34 pmESE 1.9 4.1----29.77- 70.5- 50.7---
0919 5:32 pm E 2.9 5.1----29.77- 70.7- 51.3---
0919 5:30 pm SE 1.0 1.9----29.77- 72.3- 50.5---
0919 5:28 pm S 1.9 1.9----29.77- 72.1- 50.0---
0919 5:26 pm SE 1.9 2.9----29.77- 71.8- 49.1---
0919 5:24 pm E 1.0 2.9----29.77- 71.2- 51.3---
0919 5:22 pm E 1.9 1.9----29.77- 71.4- 51.3---
0919 5:20 pm E 1.0 4.1----29.77- 72.5- 51.4---
0919 5:18 pm- 0.0 1.9----29.77- 73.2- 51.6---
0919 5:16 pmSSW 1.9 2.9----29.77- 73.8- 50.0---
0919 5:14 pm S 1.0 1.9----29.76- 74.3- 50.7---
0919 5:12 pmSSW 1.9 2.9----29.76- 74.1- 50.4---
0919 5:10 pm- 0.0 1.9----29.76- 74.5- 51.6---
0919 5:08 pm- 0.0 1.0----29.76- 74.1- 52.2---
0919 5:06 pm- 0.0 1.9----29.76- 73.0- 50.7---
0919 5:04 pm- 0.0 1.0----29.76- 72.5- 49.8---
0919 5:02 pm E 1.0 1.9----29.76- 71.8- 49.5---
0919 5:00 pm E 1.9 2.9----29.76- 71.4- 50.4---
0919 4:58 pmESE 1.9 1.9----29.76- 71.6- 51.3---
0919 4:56 pm E 1.9 2.9----29.77- 71.8- 49.6---
0919 4:54 pm E 1.9 4.1----29.77- 71.6- 49.6---
0919 4:52 pm E 2.9 4.1----29.77- 71.4- 49.8---
0919 4:50 pmESE 4.1 5.1----29.77- 71.8- 49.3---

Solar Radiation Conditions at CPXC1 as of
(4:58 pm PDT)
2358 GMT on 09/20/2018:
     

Click on the graph icon in the table below to see a time series plot of the last five days of that observation.

5-day plot - Short Wave Radiation 1Short Wave Radiation 1 (SRAD1): 404.7watts/meter2
Previous observations
5-day plot - Short Wave Radiation 1 5-day plot - Short Wave Radiation 2 5-day plot - Long Wave Radiation
MM   DD    TIME
(PDT)
  SRAD1
w/m2
   SWRAD
w/m2
    LWRAD
w/m2
09204:46 pm 456.4--
09204:36 pm 522.2--
09204:26 pm 564.5--
09204:16 pm 597.4--
09204:06 pm 620.9--
09203:56 pm 649.2--
09203:46 pm 691.5--
09203:36 pm 729.1--
09203:26 pm 762.0--
09203:14 pm 823.1--
09203:04 pm 846.6--
09202:54 pm 874.8--
09202:44 pm 893.6--
09202:34 pm 921.8--
09202:24 pm 935.9--
09202:14 pm 950.0--
09202:04 pm 968.8--
09201:54 pm 978.2--
09201:44 pm 987.6--
09201:34 pm 987.6--
09201:24 pm 987.6--
09201:12 pm 987.6--
09201:02 pm 968.8--
092012:52 pm 978.2--
092012:42 pm 964.1--
092012:32 pm 954.7--
092012:22 pm 945.3--
092012:12 pm 926.5--
092012:02 pm 926.5--
092011:52 am 921.8--
092011:42 am 912.4--
092011:30 am 893.6--
092011:20 am 884.2--
092011:10 am 865.4--
092011:00 am 846.6--
092010:50 am 837.2--
092010:40 am 804.3--
092010:30 am 776.1--
092010:20 am 743.2--
092010:10 am 710.3--
092010:00 am 677.4--
09209:50 am 653.9--
09209:38 am 597.4--
09209:28 am 545.7--
09209:18 am 498.7--
09209:08 am 423.5--
09208:58 am 395.3--
09208:48 am 348.3--
09208:38 am 301.3--
09208:28 am 259.0--
09208:18 am 216.7--
09208:08 am 183.8--
09207:58 am 160.3--
09207:46 am 127.3--
09207:36 am 99.1--
09207:26 am 56.8--
09207:16 am 38.0--
09207:06 am 14.5--
09206:56 am 9.8--
09206:46 am 0.4--
09206:26 am 0.4--
09206:16 am 9.8--
09206:06 am 0.4--
09205:56 am 14.5--
09205:44 am 9.8--
09205:24 am 5.1--
09205:14 am 5.1--
09204:54 am 5.1--
09204:44 am 0.4--
09204:34 am 0.4--
09204:24 am 5.1--
09204:14 am 5.1--
09203:54 am 5.1--
09203:42 am 0.4--
09203:32 am 0.4--
09203:22 am 5.1--
09203:12 am 0.4--
09203:02 am 0.4--
09202:52 am 0.4--
09202:42 am 0.4--
09202:32 am 0.4--
09202:22 am 5.1--
09202:12 am 0.4--
09202:02 am 0.4--
09201:52 am 0.4--
09201:40 am 0.4--
09201:30 am 0.4--
09201:00 am 0.4--
092012:40 am 0.4--
092012:30 am 0.4--
092012:20 am 0.4--
092012:10 am 0.4--
092012:00 am 0.4--
091911:50 pm 0.4--
091911:28 pm 0.4--
091911:18 pm 5.1--
091911:08 pm 0.4--
091910:58 pm 0.4--
091910:48 pm 0.4--
091910:38 pm 0.4--
091910:28 pm 0.4--
091910:18 pm 0.4--
091910:08 pm 0.4--
09199:58 pm 0.4--
09199:48 pm 0.4--
09199:26 pm 0.4--
09199:16 pm 0.4--
09199:06 pm 0.4--
09198:56 pm 0.4--
09198:46 pm 0.4--
09198:36 pm 0.4--
09198:26 pm 0.4--
09198:16 pm 0.4--
09198:06 pm 0.4--
09197:56 pm 0.4--
09197:14 pm 0.4--
09197:04 pm 0.4--
09196:54 pm 5.1--
09196:44 pm 9.8--
09196:34 pm 52.1--
09196:24 pm 70.9--
09196:14 pm 85.0--
09196:04 pm 122.6--
09195:54 pm 160.3--
09195:44 pm 212.0--
09195:32 pm 235.5--
09195:22 pm 273.1--
09195:12 pm 334.2--
09195:02 pm 385.9--
09194:52 pm 423.5--

Description of Measurements

Links which are specific to this station are listed below:

Real Time Data in tabular form for the last forty-five days.

Historical Data & Climatic Summaries for quality controlled data for the current month, previous months, and previous years.